sensor_id;sensor_type;location;lat;lon;timestamp;P1;durP1;ratioP1;P2;durP2;ratioP2
21581;SDS011;10952;50.836;4.348;2024-01-07T00:00:35;16.73;;;9.67;;
21581;SDS011;10952;50.836;4.348;2024-01-07T00:03:01;15.40;;;9.47;;
21581;SDS011;10952;50.836;4.348;2024-01-07T00:05:26;16.90;;;9.67;;
21581;SDS011;10952;50.836;4.348;2024-01-07T00:07:52;18.37;;;9.77;;
21581;SDS011;10952;50.836;4.348;2024-01-07T00:10:18;15.33;;;10.00;;
21581;SDS011;10952;50.836;4.348;2024-01-07T00:12:44;18.60;;;10.27;;
21581;SDS011;10952;50.836;4.348;2024-01-07T00:15:10;19.93;;;9.97;;
21581;SDS011;10952;50.836;4.348;2024-01-07T00:17:35;17.37;;;9.70;;
21581;SDS011;10952;50.836;4.348;2024-01-07T00:20:01;18.10;;;9.83;;
21581;SDS011;10952;50.836;4.348;2024-01-07T00:22:27;18.83;;;11.33;;
21581;SDS011;10952;50.836;4.348;2024-01-07T00:24:53;18.27;;;10.00;;
21581;SDS011;10952;50.836;4.348;2024-01-07T00:27:19;16.70;;;10.67;;
21581;SDS011;10952;50.836;4.348;2024-01-07T00:29:44;15.83;;;10.83;;
21581;SDS011;10952;50.836;4.348;2024-01-07T00:32:10;17.00;;;10.10;;
21581;SDS011;10952;50.836;4.348;2024-01-07T00:34:35;16.10;;;10.60;;
21581;SDS011;10952;50.836;4.348;2024-01-07T00:37:01;16.47;;;10.17;;
21581;SDS011;10952;50.836;4.348;2024-01-07T00:39:27;17.20;;;10.93;;
21581;SDS011;10952;50.836;4.348;2024-01-07T00:41:52;17.90;;;10.63;;
21581;SDS011;10952;50.836;4.348;2024-01-07T00:44:18;19.40;;;11.30;;
21581;SDS011;10952;50.836;4.348;2024-01-07T00:46:44;17.90;;;10.43;;
21581;SDS011;10952;50.836;4.348;2024-01-07T00:49:09;17.53;;;10.93;;
21581;SDS011;10952;50.836;4.348;2024-01-07T00:51:35;21.53;;;10.50;;
21581;SDS011;10952;50.836;4.348;2024-01-07T00:54:01;17.13;;;10.63;;
21581;SDS011;10952;50.836;4.348;2024-01-07T00:56:27;16.10;;;10.57;;
21581;SDS011;10952;50.836;4.348;2024-01-07T00:58:53;18.27;;;11.30;;
21581;SDS011;10952;50.836;4.348;2024-01-07T01:01:18;17.00;;;9.80;;
21581;SDS011;10952;50.836;4.348;2024-01-07T01:03:44;15.87;;;9.93;;
21581;SDS011;10952;50.836;4.348;2024-01-07T01:06:10;15.20;;;9.30;;
21581;SDS011;10952;50.836;4.348;2024-01-07T01:08:36;17.23;;;10.30;;
21581;SDS011;10952;50.836;4.348;2024-01-07T01:11:02;17.40;;;11.40;;
21581;SDS011;10952;50.836;4.348;2024-01-07T01:13:28;20.43;;;11.83;;
21581;SDS011;10952;50.836;4.348;2024-01-07T01:15:53;18.77;;;10.40;;
21581;SDS011;10952;50.836;4.348;2024-01-07T01:18:20;20.17;;;11.33;;
21581;SDS011;10952;50.836;4.348;2024-01-07T01:20:46;18.57;;;10.93;;
21581;SDS011;10952;50.836;4.348;2024-01-07T01:23:11;16.17;;;10.47;;
21581;SDS011;10952;50.836;4.348;2024-01-07T01:25:37;18.17;;;10.83;;
21581;SDS011;10952;50.836;4.348;2024-01-07T01:28:04;19.20;;;11.43;;
21581;SDS011;10952;50.836;4.348;2024-01-07T01:30:30;20.27;;;11.87;;
21581;SDS011;10952;50.836;4.348;2024-01-07T01:32:57;17.53;;;10.73;;
21581;SDS011;10952;50.836;4.348;2024-01-07T01:35:22;17.60;;;9.93;;
21581;SDS011;10952;50.836;4.348;2024-01-07T01:37:48;20.47;;;10.53;;
21581;SDS011;10952;50.836;4.348;2024-01-07T01:40:16;17.73;;;10.83;;
21581;SDS011;10952;50.836;4.348;2024-01-07T01:42:45;16.23;;;10.27;;
21581;SDS011;10952;50.836;4.348;2024-01-07T01:45:13;16.43;;;10.70;;
21581;SDS011;10952;50.836;4.348;2024-01-07T01:47:39;17.27;;;10.80;;
21581;SDS011;10952;50.836;4.348;2024-01-07T01:50:06;15.50;;;10.90;;
21581;SDS011;10952;50.836;4.348;2024-01-07T01:52:32;17.27;;;10.97;;
21581;SDS011;10952;50.836;4.348;2024-01-07T01:54:59;19.00;;;11.13;;
21581;SDS011;10952;50.836;4.348;2024-01-07T01:57:27;15.80;;;10.90;;
21581;SDS011;10952;50.836;4.348;2024-01-07T01:59:58;17.07;;;11.33;;
21581;SDS011;10952;50.836;4.348;2024-01-07T02:02:29;20.07;;;12.03;;
21581;SDS011;10952;50.836;4.348;2024-01-07T02:04:56;18.47;;;11.43;;
21581;SDS011;10952;50.836;4.348;2024-01-07T02:07:24;21.87;;;11.70;;
21581;SDS011;10952;50.836;4.348;2024-01-07T02:09:50;22.43;;;13.53;;
21581;SDS011;10952;50.836;4.348;2024-01-07T02:12:16;20.87;;;12.47;;
21581;SDS011;10952;50.836;4.348;2024-01-07T02:14:41;22.07;;;13.07;;
21581;SDS011;10952;50.836;4.348;2024-01-07T02:17:07;20.33;;;12.83;;
21581;SDS011;10952;50.836;4.348;2024-01-07T02:19:33;22.60;;;12.93;;
21581;SDS011;10952;50.836;4.348;2024-01-07T02:21:59;23.03;;;12.83;;
21581;SDS011;10952;50.836;4.348;2024-01-07T02:24:24;18.60;;;11.37;;
21581;SDS011;10952;50.836;4.348;2024-01-07T02:26:50;17.43;;;10.63;;
21581;SDS011;10952;50.836;4.348;2024-01-07T02:29:16;16.43;;;10.53;;
21581;SDS011;10952;50.836;4.348;2024-01-07T02:31:41;16.87;;;9.80;;
21581;SDS011;10952;50.836;4.348;2024-01-07T02:34:09;20.17;;;10.77;;
21581;SDS011;10952;50.836;4.348;2024-01-07T02:36:35;16.87;;;9.93;;
21581;SDS011;10952;50.836;4.348;2024-01-07T02:39:01;14.90;;;9.10;;
21581;SDS011;10952;50.836;4.348;2024-01-07T02:41:27;14.97;;;9.50;;
21581;SDS011;10952;50.836;4.348;2024-01-07T02:43:53;16.97;;;10.00;;
21581;SDS011;10952;50.836;4.348;2024-01-07T02:46:19;16.47;;;10.30;;
21581;SDS011;10952;50.836;4.348;2024-01-07T02:48:45;16.93;;;10.13;;
21581;SDS011;10952;50.836;4.348;2024-01-07T02:51:11;16.73;;;10.17;;
21581;SDS011;10952;50.836;4.348;2024-01-07T02:53:36;20.10;;;10.50;;
21581;SDS011;10952;50.836;4.348;2024-01-07T02:56:02;17.70;;;10.27;;
21581;SDS011;10952;50.836;4.348;2024-01-07T02:58:28;17.73;;;10.23;;
21581;SDS011;10952;50.836;4.348;2024-01-07T03:00:54;17.73;;;10.63;;
21581;SDS011;10952;50.836;4.348;2024-01-07T03:03:19;18.83;;;11.00;;
21581;SDS011;10952;50.836;4.348;2024-01-07T03:05:45;19.40;;;11.77;;
21581;SDS011;10952;50.836;4.348;2024-01-07T03:08:11;22.27;;;11.53;;
21581;SDS011;10952;50.836;4.348;2024-01-07T03:10:37;19.97;;;11.47;;
21581;SDS011;10952;50.836;4.348;2024-01-07T03:13:03;21.00;;;12.07;;
21581;SDS011;10952;50.836;4.348;2024-01-07T03:15:29;18.60;;;12.03;;
21581;SDS011;10952;50.836;4.348;2024-01-07T03:17:54;20.73;;;12.20;;
21581;SDS011;10952;50.836;4.348;2024-01-07T03:20:21;24.73;;;11.60;;
21581;SDS011;10952;50.836;4.348;2024-01-07T03:22:47;20.83;;;12.03;;
21581;SDS011;10952;50.836;4.348;2024-01-07T03:25:13;19.83;;;12.87;;
21581;SDS011;10952;50.836;4.348;2024-01-07T03:27:39;21.50;;;13.07;;
21581;SDS011;10952;50.836;4.348;2024-01-07T03:30:05;21.23;;;12.10;;
21581;SDS011;10952;50.836;4.348;2024-01-07T03:32:31;20.97;;;12.70;;
21581;SDS011;10952;50.836;4.348;2024-01-07T03:34:57;21.37;;;11.77;;
21581;SDS011;10952;50.836;4.348;2024-01-07T03:37:22;23.30;;;13.27;;
21581;SDS011;10952;50.836;4.348;2024-01-07T03:39:48;23.77;;;13.30;;
21581;SDS011;10952;50.836;4.348;2024-01-07T03:42:14;21.50;;;12.93;;
21581;SDS011;10952;50.836;4.348;2024-01-07T03:44:40;25.20;;;14.17;;
21581;SDS011;10952;50.836;4.348;2024-01-07T03:47:11;27.53;;;14.83;;
21581;SDS011;10952;50.836;4.348;2024-01-07T03:49:37;31.33;;;16.10;;
21581;SDS011;10952;50.836;4.348;2024-01-07T03:52:04;26.70;;;15.07;;
21581;SDS011;10952;50.836;4.348;2024-01-07T03:54:31;27.13;;;16.17;;
21581;SDS011;10952;50.836;4.348;2024-01-07T03:56:56;26.87;;;15.47;;
21581;SDS011;10952;50.836;4.348;2024-01-07T03:59:22;27.03;;;15.37;;
21581;SDS011;10952;50.836;4.348;2024-01-07T04:01:50;28.50;;;15.33;;
21581;SDS011;10952;50.836;4.348;2024-01-07T04:04:18;31.03;;;16.87;;
21581;SDS011;10952;50.836;4.348;2024-01-07T04:06:44;26.13;;;15.33;;
21581;SDS011;10952;50.836;4.348;2024-01-07T04:09:09;29.17;;;15.17;;
21581;SDS011;10952;50.836;4.348;2024-01-07T04:11:42;27.33;;;16.57;;
21581;SDS011;10952;50.836;4.348;2024-01-07T04:14:08;27.87;;;15.90;;
21581;SDS011;10952;50.836;4.348;2024-01-07T04:16:34;29.67;;;15.40;;
21581;SDS011;10952;50.836;4.348;2024-01-07T04:19:00;35.47;;;18.00;;
21581;SDS011;10952;50.836;4.348;2024-01-07T04:21:26;31.67;;;17.43;;
21581;SDS011;10952;50.836;4.348;2024-01-07T04:23:52;33.33;;;17.97;;
21581;SDS011;10952;50.836;4.348;2024-01-07T04:26:17;31.47;;;18.00;;
21581;SDS011;10952;50.836;4.348;2024-01-07T04:28:43;33.33;;;18.33;;
21581;SDS011;10952;50.836;4.348;2024-01-07T04:31:09;34.50;;;18.57;;
21581;SDS011;10952;50.836;4.348;2024-01-07T04:33:35;35.83;;;19.00;;
21581;SDS011;10952;50.836;4.348;2024-01-07T04:36:01;37.83;;;19.77;;
21581;SDS011;10952;50.836;4.348;2024-01-07T04:38:28;38.80;;;20.17;;
21581;SDS011;10952;50.836;4.348;2024-01-07T04:40:54;38.03;;;19.43;;
21581;SDS011;10952;50.836;4.348;2024-01-07T04:43:19;38.33;;;19.83;;
21581;SDS011;10952;50.836;4.348;2024-01-07T04:45:45;39.73;;;19.83;;
21581;SDS011;10952;50.836;4.348;2024-01-07T04:48:12;43.63;;;20.37;;
21581;SDS011;10952;50.836;4.348;2024-01-07T04:50:41;37.77;;;19.93;;
21581;SDS011;10952;50.836;4.348;2024-01-07T04:53:07;37.00;;;19.20;;
21581;SDS011;10952;50.836;4.348;2024-01-07T04:55:33;38.83;;;20.03;;
21581;SDS011;10952;50.836;4.348;2024-01-07T04:57:59;43.63;;;20.70;;
21581;SDS011;10952;50.836;4.348;2024-01-07T05:00:25;41.10;;;21.33;;
21581;SDS011;10952;50.836;4.348;2024-01-07T05:02:50;42.23;;;20.80;;
21581;SDS011;10952;50.836;4.348;2024-01-07T05:05:16;43.00;;;22.27;;
21581;SDS011;10952;50.836;4.348;2024-01-07T05:07:42;42.70;;;21.33;;
21581;SDS011;10952;50.836;4.348;2024-01-07T05:10:07;41.37;;;21.93;;
21581;SDS011;10952;50.836;4.348;2024-01-07T05:12:33;41.33;;;21.40;;
21581;SDS011;10952;50.836;4.348;2024-01-07T05:14:59;42.73;;;21.43;;
21581;SDS011;10952;50.836;4.348;2024-01-07T05:17:25;39.97;;;22.20;;
21581;SDS011;10952;50.836;4.348;2024-01-07T05:19:50;40.40;;;20.53;;
21581;SDS011;10952;50.836;4.348;2024-01-07T05:22:16;36.73;;;20.13;;
21581;SDS011;10952;50.836;4.348;2024-01-07T05:24:42;44.40;;;21.50;;
21581;SDS011;10952;50.836;4.348;2024-01-07T05:27:08;42.13;;;21.20;;
21581;SDS011;10952;50.836;4.348;2024-01-07T05:29:34;42.67;;;21.27;;
21581;SDS011;10952;50.836;4.348;2024-01-07T05:32:00;43.13;;;20.23;;
21581;SDS011;10952;50.836;4.348;2024-01-07T05:34:29;42.80;;;22.13;;
21581;SDS011;10952;50.836;4.348;2024-01-07T05:36:55;42.17;;;21.60;;
21581;SDS011;10952;50.836;4.348;2024-01-07T05:39:21;41.60;;;20.50;;
21581;SDS011;10952;50.836;4.348;2024-01-07T05:41:47;40.53;;;20.97;;
21581;SDS011;10952;50.836;4.348;2024-01-07T05:44:12;39.00;;;20.07;;
21581;SDS011;10952;50.836;4.348;2024-01-07T05:46:38;38.47;;;20.20;;
21581;SDS011;10952;50.836;4.348;2024-01-07T05:49:05;40.60;;;20.77;;
21581;SDS011;10952;50.836;4.348;2024-01-07T05:51:30;36.37;;;19.53;;
21581;SDS011;10952;50.836;4.348;2024-01-07T05:53:56;40.20;;;20.90;;
21581;SDS011;10952;50.836;4.348;2024-01-07T05:56:22;38.80;;;20.20;;
21581;SDS011;10952;50.836;4.348;2024-01-07T05:58:48;34.03;;;19.20;;
21581;SDS011;10952;50.836;4.348;2024-01-07T06:01:23;38.40;;;19.67;;
21581;SDS011;10952;50.836;4.348;2024-01-07T06:03:48;45.23;;;21.17;;
21581;SDS011;10952;50.836;4.348;2024-01-07T06:06:14;40.53;;;20.30;;
21581;SDS011;10952;50.836;4.348;2024-01-07T06:08:43;40.27;;;20.13;;
21581;SDS011;10952;50.836;4.348;2024-01-07T06:11:09;38.90;;;20.60;;
21581;SDS011;10952;50.836;4.348;2024-01-07T06:13:43;41.27;;;20.37;;
21581;SDS011;10952;50.836;4.348;2024-01-07T06:16:10;41.53;;;19.50;;
21581;SDS011;10952;50.836;4.348;2024-01-07T06:18:35;42.30;;;21.57;;
21581;SDS011;10952;50.836;4.348;2024-01-07T06:21:01;44.20;;;21.07;;
21581;SDS011;10952;50.836;4.348;2024-01-07T06:23:27;46.27;;;23.13;;
21581;SDS011;10952;50.836;4.348;2024-01-07T06:25:53;43.40;;;21.97;;
21581;SDS011;10952;50.836;4.348;2024-01-07T06:28:19;43.93;;;21.77;;
21581;SDS011;10952;50.836;4.348;2024-01-07T06:30:45;45.40;;;21.93;;
21581;SDS011;10952;50.836;4.348;2024-01-07T06:33:11;43.73;;;21.27;;
21581;SDS011;10952;50.836;4.348;2024-01-07T06:35:38;43.53;;;21.63;;
21581;SDS011;10952;50.836;4.348;2024-01-07T06:38:03;47.63;;;23.33;;
21581;SDS011;10952;50.836;4.348;2024-01-07T06:40:29;47.63;;;23.03;;
21581;SDS011;10952;50.836;4.348;2024-01-07T06:42:55;42.93;;;20.70;;
21581;SDS011;10952;50.836;4.348;2024-01-07T06:45:21;44.67;;;22.97;;
21581;SDS011;10952;50.836;4.348;2024-01-07T06:47:47;43.90;;;21.17;;
21581;SDS011;10952;50.836;4.348;2024-01-07T06:50:12;48.10;;;21.87;;
21581;SDS011;10952;50.836;4.348;2024-01-07T06:52:38;53.03;;;24.60;;
21581;SDS011;10952;50.836;4.348;2024-01-07T06:55:04;47.00;;;22.27;;
21581;SDS011;10952;50.836;4.348;2024-01-07T06:57:30;41.87;;;21.77;;
21581;SDS011;10952;50.836;4.348;2024-01-07T06:59:56;47.83;;;22.13;;
21581;SDS011;10952;50.836;4.348;2024-01-07T07:02:22;46.30;;;22.13;;
21581;SDS011;10952;50.836;4.348;2024-01-07T07:04:48;45.23;;;21.50;;
21581;SDS011;10952;50.836;4.348;2024-01-07T07:07:15;44.77;;;21.00;;
21581;SDS011;10952;50.836;4.348;2024-01-07T07:09:41;46.97;;;21.37;;
21581;SDS011;10952;50.836;4.348;2024-01-07T07:12:07;46.27;;;21.17;;
21581;SDS011;10952;50.836;4.348;2024-01-07T07:14:33;43.40;;;21.07;;
21581;SDS011;10952;50.836;4.348;2024-01-07T07:17:00;43.13;;;19.93;;
21581;SDS011;10952;50.836;4.348;2024-01-07T07:19:25;46.53;;;20.60;;
21581;SDS011;10952;50.836;4.348;2024-01-07T07:21:51;48.87;;;20.03;;
21581;SDS011;10952;50.836;4.348;2024-01-07T07:24:17;42.63;;;20.13;;
21581;SDS011;10952;50.836;4.348;2024-01-07T07:26:42;47.97;;;20.63;;
21581;SDS011;10952;50.836;4.348;2024-01-07T07:29:08;49.70;;;22.30;;
21581;SDS011;10952;50.836;4.348;2024-01-07T07:31:37;52.07;;;23.80;;
21581;SDS011;10952;50.836;4.348;2024-01-07T07:34:08;50.80;;;22.67;;
21581;SDS011;10952;50.836;4.348;2024-01-07T07:36:35;49.37;;;22.47;;
21581;SDS011;10952;50.836;4.348;2024-01-07T07:39:01;50.37;;;22.93;;
21581;SDS011;10952;50.836;4.348;2024-01-07T07:41:26;52.67;;;23.77;;
21581;SDS011;10952;50.836;4.348;2024-01-07T07:43:53;49.37;;;20.90;;
21581;SDS011;10952;50.836;4.348;2024-01-07T07:46:19;49.50;;;22.20;;
21581;SDS011;10952;50.836;4.348;2024-01-07T07:48:45;56.33;;;24.40;;
21581;SDS011;10952;50.836;4.348;2024-01-07T07:51:11;54.53;;;23.73;;
21581;SDS011;10952;50.836;4.348;2024-01-07T07:53:39;57.30;;;24.70;;
21581;SDS011;10952;50.836;4.348;2024-01-07T07:56:05;53.70;;;23.87;;
21581;SDS011;10952;50.836;4.348;2024-01-07T07:58:31;58.53;;;24.60;;
21581;SDS011;10952;50.836;4.348;2024-01-07T08:00:57;52.87;;;23.37;;
21581;SDS011;10952;50.836;4.348;2024-01-07T08:03:23;49.23;;;22.27;;
21581;SDS011;10952;50.836;4.348;2024-01-07T08:05:49;50.10;;;20.77;;
21581;SDS011;10952;50.836;4.348;2024-01-07T08:08:15;48.57;;;21.93;;
21581;SDS011;10952;50.836;4.348;2024-01-07T08:10:42;50.73;;;21.70;;
21581;SDS011;10952;50.836;4.348;2024-01-07T08:13:08;42.93;;;21.40;;
21581;SDS011;10952;50.836;4.348;2024-01-07T08:15:34;50.40;;;21.80;;
21581;SDS011;10952;50.836;4.348;2024-01-07T08:18:00;52.27;;;23.13;;
21581;SDS011;10952;50.836;4.348;2024-01-07T08:20:27;54.53;;;25.30;;
21581;SDS011;10952;50.836;4.348;2024-01-07T08:22:54;53.07;;;24.67;;
21581;SDS011;10952;50.836;4.348;2024-01-07T08:25:19;53.77;;;24.53;;
21581;SDS011;10952;50.836;4.348;2024-01-07T08:27:45;56.07;;;25.00;;
21581;SDS011;10952;50.836;4.348;2024-01-07T08:30:11;52.90;;;24.57;;
21581;SDS011;10952;50.836;4.348;2024-01-07T08:32:40;56.00;;;25.53;;
21581;SDS011;10952;50.836;4.348;2024-01-07T08:35:06;51.70;;;23.80;;
21581;SDS011;10952;50.836;4.348;2024-01-07T08:37:32;47.60;;;22.00;;
21581;SDS011;10952;50.836;4.348;2024-01-07T08:39:58;54.17;;;24.90;;
21581;SDS011;10952;50.836;4.348;2024-01-07T08:42:24;48.23;;;22.93;;
21581;SDS011;10952;50.836;4.348;2024-01-07T08:44:51;44.50;;;22.47;;
21581;SDS011;10952;50.836;4.348;2024-01-07T08:47:17;48.03;;;23.00;;
21581;SDS011;10952;50.836;4.348;2024-01-07T08:49:42;43.23;;;20.83;;
21581;SDS011;10952;50.836;4.348;2024-01-07T08:52:08;42.53;;;21.83;;
21581;SDS011;10952;50.836;4.348;2024-01-07T08:54:35;44.63;;;21.67;;
21581;SDS011;10952;50.836;4.348;2024-01-07T08:57:00;40.40;;;20.80;;
21581;SDS011;10952;50.836;4.348;2024-01-07T08:59:26;43.47;;;21.10;;
21581;SDS011;10952;50.836;4.348;2024-01-07T09:01:52;40.53;;;18.77;;
21581;SDS011;10952;50.836;4.348;2024-01-07T09:04:17;35.87;;;19.30;;
21581;SDS011;10952;50.836;4.348;2024-01-07T09:06:43;39.30;;;19.93;;
21581;SDS011;10952;50.836;4.348;2024-01-07T09:09:09;32.27;;;18.47;;
21581;SDS011;10952;50.836;4.348;2024-01-07T09:11:35;37.10;;;18.13;;
21581;SDS011;10952;50.836;4.348;2024-01-07T09:14:02;34.97;;;18.13;;
21581;SDS011;10952;50.836;4.348;2024-01-07T09:16:31;32.80;;;17.30;;
21581;SDS011;10952;50.836;4.348;2024-01-07T09:18:56;29.27;;;14.20;;
21581;SDS011;10952;50.836;4.348;2024-01-07T09:21:22;29.27;;;16.60;;
21581;SDS011;10952;50.836;4.348;2024-01-07T09:23:48;28.83;;;15.13;;
21581;SDS011;10952;50.836;4.348;2024-01-07T09:26:14;27.43;;;15.83;;
21581;SDS011;10952;50.836;4.348;2024-01-07T09:28:39;28.67;;;15.63;;
21581;SDS011;10952;50.836;4.348;2024-01-07T09:31:05;27.97;;;15.73;;
21581;SDS011;10952;50.836;4.348;2024-01-07T09:33:32;29.33;;;15.60;;
21581;SDS011;10952;50.836;4.348;2024-01-07T09:35:57;28.60;;;15.23;;
21581;SDS011;10952;50.836;4.348;2024-01-07T09:38:23;29.93;;;16.43;;
21581;SDS011;10952;50.836;4.348;2024-01-07T09:40:50;27.97;;;16.00;;
21581;SDS011;10952;50.836;4.348;2024-01-07T09:43:18;28.47;;;15.97;;
21581;SDS011;10952;50.836;4.348;2024-01-07T09:45:47;29.60;;;16.87;;
21581;SDS011;10952;50.836;4.348;2024-01-07T09:48:15;32.07;;;16.37;;
21581;SDS011;10952;50.836;4.348;2024-01-07T09:50:41;32.53;;;17.40;;
21581;SDS011;10952;50.836;4.348;2024-01-07T09:53:07;32.00;;;17.27;;
21581;SDS011;10952;50.836;4.348;2024-01-07T09:56:24;31.97;;;18.17;;
21581;SDS011;10952;50.836;4.348;2024-01-07T09:58:49;28.90;;;15.43;;
21581;SDS011;10952;50.836;4.348;2024-01-07T10:01:18;28.13;;;15.93;;
21581;SDS011;10952;50.836;4.348;2024-01-07T10:03:44;31.57;;;17.80;;
21581;SDS011;10952;50.836;4.348;2024-01-07T10:06:10;29.80;;;18.67;;
21581;SDS011;10952;50.836;4.348;2024-01-07T10:08:36;34.60;;;17.73;;
21581;SDS011;10952;50.836;4.348;2024-01-07T10:11:02;35.20;;;19.70;;
21581;SDS011;10952;50.836;4.348;2024-01-07T10:13:29;33.17;;;18.80;;
21581;SDS011;10952;50.836;4.348;2024-01-07T10:15:56;33.50;;;18.53;;
21581;SDS011;10952;50.836;4.348;2024-01-07T10:18:22;34.53;;;19.13;;
21581;SDS011;10952;50.836;4.348;2024-01-07T10:20:47;33.30;;;19.37;;
21581;SDS011;10952;50.836;4.348;2024-01-07T10:23:18;31.23;;;17.57;;
21581;SDS011;10952;50.836;4.348;2024-01-07T10:25:44;34.07;;;19.70;;
21581;SDS011;10952;50.836;4.348;2024-01-07T10:28:10;34.37;;;18.83;;
21581;SDS011;10952;50.836;4.348;2024-01-07T10:30:39;30.47;;;17.90;;
21581;SDS011;10952;50.836;4.348;2024-01-07T10:33:06;34.30;;;19.30;;
21581;SDS011;10952;50.836;4.348;2024-01-07T10:35:36;31.47;;;18.27;;
21581;SDS011;10952;50.836;4.348;2024-01-07T10:38:03;33.03;;;19.03;;
21581;SDS011;10952;50.836;4.348;2024-01-07T10:40:30;32.33;;;18.60;;
21581;SDS011;10952;50.836;4.348;2024-01-07T10:42:58;28.20;;;16.63;;
21581;SDS011;10952;50.836;4.348;2024-01-07T10:45:24;30.03;;;17.50;;
21581;SDS011;10952;50.836;4.348;2024-01-07T10:47:54;28.33;;;17.13;;
21581;SDS011;10952;50.836;4.348;2024-01-07T10:50:21;30.27;;;17.60;;
21581;SDS011;10952;50.836;4.348;2024-01-07T10:52:50;30.67;;;17.73;;
21581;SDS011;10952;50.836;4.348;2024-01-07T10:55:20;30.73;;;18.33;;
21581;SDS011;10952;50.836;4.348;2024-01-07T10:57:51;35.67;;;18.40;;
21581;SDS011;10952;50.836;4.348;2024-01-07T11:00:21;35.20;;;18.67;;
21581;SDS011;10952;50.836;4.348;2024-01-07T11:08:15;32.67;;;18.83;;
21581;SDS011;10952;50.836;4.348;2024-01-07T11:11:12;28.57;;;17.37;;
21581;SDS011;10952;50.836;4.348;2024-01-07T11:13:41;33.00;;;18.27;;
21581;SDS011;10952;50.836;4.348;2024-01-07T11:16:08;34.37;;;18.87;;
21581;SDS011;10952;50.836;4.348;2024-01-07T11:18:54;31.07;;;16.87;;
21581;SDS011;10952;50.836;4.348;2024-01-07T11:21:20;31.03;;;18.27;;
21581;SDS011;10952;50.836;4.348;2024-01-07T11:23:47;27.53;;;16.73;;
21581;SDS011;10952;50.836;4.348;2024-01-07T11:26:12;33.37;;;16.67;;
21581;SDS011;10952;50.836;4.348;2024-01-07T11:28:45;32.67;;;16.63;;
21581;SDS011;10952;50.836;4.348;2024-01-07T11:31:11;28.67;;;15.77;;
21581;SDS011;10952;50.836;4.348;2024-01-07T11:33:38;29.67;;;16.83;;
21581;SDS011;10952;50.836;4.348;2024-01-07T11:36:06;26.60;;;15.20;;
21581;SDS011;10952;50.836;4.348;2024-01-07T11:38:35;27.50;;;14.30;;
21581;SDS011;10952;50.836;4.348;2024-01-07T11:41:04;26.67;;;14.43;;
21581;SDS011;10952;50.836;4.348;2024-01-07T11:43:31;23.07;;;13.83;;
21581;SDS011;10952;50.836;4.348;2024-01-07T11:45:59;27.87;;;15.03;;
21581;SDS011;10952;50.836;4.348;2024-01-07T11:48:25;25.83;;;15.00;;
21581;SDS011;10952;50.836;4.348;2024-01-07T11:50:51;26.37;;;15.47;;
21581;SDS011;10952;50.836;4.348;2024-01-07T11:53:17;25.03;;;14.63;;
21581;SDS011;10952;50.836;4.348;2024-01-07T11:55:42;26.50;;;15.10;;
21581;SDS011;10952;50.836;4.348;2024-01-07T11:58:09;27.10;;;17.90;;
21581;SDS011;10952;50.836;4.348;2024-01-07T12:00:35;29.67;;;16.57;;
21581;SDS011;10952;50.836;4.348;2024-01-07T12:03:01;25.23;;;15.07;;
21581;SDS011;10952;50.836;4.348;2024-01-07T12:05:28;23.63;;;13.97;;
21581;SDS011;10952;50.836;4.348;2024-01-07T12:07:54;32.60;;;15.03;;
21581;SDS011;10952;50.836;4.348;2024-01-07T12:10:20;31.03;;;15.77;;
21581;SDS011;10952;50.836;4.348;2024-01-07T12:12:47;24.53;;;13.87;;
21581;SDS011;10952;50.836;4.348;2024-01-07T12:15:13;27.73;;;15.87;;
21581;SDS011;10952;50.836;4.348;2024-01-07T12:17:39;26.67;;;14.60;;
21581;SDS011;10952;50.836;4.348;2024-01-07T12:20:05;36.47;;;16.73;;
21581;SDS011;10952;50.836;4.348;2024-01-07T12:22:32;21.70;;;13.33;;
21581;SDS011;10952;50.836;4.348;2024-01-07T12:25:07;22.17;;;11.37;;
21581;SDS011;10952;50.836;4.348;2024-01-07T12:27:33;23.40;;;14.27;;
21581;SDS011;10952;50.836;4.348;2024-01-07T12:30:00;26.97;;;14.00;;
21581;SDS011;10952;50.836;4.348;2024-01-07T12:32:27;26.47;;;14.77;;
21581;SDS011;10952;50.836;4.348;2024-01-07T12:34:58;21.47;;;12.77;;
21581;SDS011;10952;50.836;4.348;2024-01-07T12:37:27;24.80;;;12.83;;
21581;SDS011;10952;50.836;4.348;2024-01-07T12:39:53;23.67;;;12.77;;
21581;SDS011;10952;50.836;4.348;2024-01-07T12:42:20;30.97;;;15.50;;
21581;SDS011;10952;50.836;4.348;2024-01-07T12:44:49;24.50;;;12.53;;
21581;SDS011;10952;50.836;4.348;2024-01-07T12:47:15;27.10;;;14.13;;
21581;SDS011;10952;50.836;4.348;2024-01-07T12:49:41;28.10;;;13.07;;
21581;SDS011;10952;50.836;4.348;2024-01-07T12:52:07;26.00;;;13.03;;
21581;SDS011;10952;50.836;4.348;2024-01-07T12:54:34;26.80;;;13.47;;
21581;SDS011;10952;50.836;4.348;2024-01-07T12:57:00;21.80;;;12.27;;
21581;SDS011;10952;50.836;4.348;2024-01-07T12:59:26;21.60;;;12.03;;
21581;SDS011;10952;50.836;4.348;2024-01-07T13:01:52;23.50;;;12.73;;
21581;SDS011;10952;50.836;4.348;2024-01-07T13:04:18;21.40;;;12.80;;
21581;SDS011;10952;50.836;4.348;2024-01-07T13:06:44;23.93;;;12.27;;
21581;SDS011;10952;50.836;4.348;2024-01-07T13:09:10;22.17;;;13.20;;
21581;SDS011;10952;50.836;4.348;2024-01-07T13:11:37;24.10;;;13.43;;
21581;SDS011;10952;50.836;4.348;2024-01-07T13:14:03;22.00;;;12.50;;
21581;SDS011;10952;50.836;4.348;2024-01-07T13:16:28;24.50;;;12.83;;
21581;SDS011;10952;50.836;4.348;2024-01-07T13:18:55;20.40;;;12.80;;
21581;SDS011;10952;50.836;4.348;2024-01-07T13:21:21;21.97;;;12.33;;
21581;SDS011;10952;50.836;4.348;2024-01-07T13:23:46;25.07;;;14.13;;
21581;SDS011;10952;50.836;4.348;2024-01-07T13:26:13;24.17;;;12.93;;
21581;SDS011;10952;50.836;4.348;2024-01-07T13:28:39;21.10;;;13.03;;
21581;SDS011;10952;50.836;4.348;2024-01-07T13:31:05;18.63;;;11.97;;
21581;SDS011;10952;50.836;4.348;2024-01-07T13:33:32;21.33;;;12.93;;
21581;SDS011;10952;50.836;4.348;2024-01-07T13:35:58;22.03;;;12.17;;
21581;SDS011;10952;50.836;4.348;2024-01-07T13:38:23;23.77;;;12.80;;
21581;SDS011;10952;50.836;4.348;2024-01-07T13:40:49;18.67;;;12.10;;
21581;SDS011;10952;50.836;4.348;2024-01-07T13:43:15;18.40;;;11.43;;
21581;SDS011;10952;50.836;4.348;2024-01-07T13:45:41;22.70;;;12.53;;
21581;SDS011;10952;50.836;4.348;2024-01-07T13:48:06;19.03;;;11.93;;
21581;SDS011;10952;50.836;4.348;2024-01-07T13:50:32;22.90;;;12.67;;
21581;SDS011;10952;50.836;4.348;2024-01-07T13:52:58;18.27;;;11.33;;
21581;SDS011;10952;50.836;4.348;2024-01-07T13:55:24;19.60;;;11.33;;
21581;SDS011;10952;50.836;4.348;2024-01-07T13:57:50;20.80;;;11.70;;
21581;SDS011;10952;50.836;4.348;2024-01-07T14:00:16;20.50;;;11.27;;
21581;SDS011;10952;50.836;4.348;2024-01-07T14:02:43;22.57;;;12.73;;
21581;SDS011;10952;50.836;4.348;2024-01-07T14:05:11;16.83;;;10.90;;
21581;SDS011;10952;50.836;4.348;2024-01-07T14:07:37;19.67;;;11.20;;
21581;SDS011;10952;50.836;4.348;2024-01-07T14:10:04;18.70;;;10.80;;
21581;SDS011;10952;50.836;4.348;2024-01-07T14:12:31;20.20;;;12.33;;
21581;SDS011;10952;50.836;4.348;2024-01-07T14:14:56;19.50;;;12.03;;
21581;SDS011;10952;50.836;4.348;2024-01-07T14:17:24;15.50;;;10.60;;
21581;SDS011;10952;50.836;4.348;2024-01-07T14:19:50;15.00;;;10.40;;
21581;SDS011;10952;50.836;4.348;2024-01-07T14:22:18;19.90;;;11.87;;